createdAt,value
2023-02-11T00:00:43.298Z,33.13
2023-02-11T00:03:09.923Z,30.52
2023-02-11T00:05:36.870Z,31.98
2023-02-11T00:08:03.637Z,31.20
2023-02-11T00:10:30.214Z,31.10
2023-02-11T00:12:56.764Z,32.10
2023-02-11T00:15:23.277Z,31.10
2023-02-11T00:17:49.801Z,33.15
2023-02-11T00:20:16.376Z,30.50
2023-02-11T00:22:42.917Z,31.55
2023-02-11T00:25:09.442Z,31.88
2023-02-11T00:27:37.444Z,31.48
2023-02-11T00:30:05.358Z,32.42
2023-02-11T00:32:31.986Z,31.42
2023-02-11T00:34:58.449Z,30.92
2023-02-11T00:37:24.935Z,30.13
2023-02-11T00:39:51.450Z,30.90
2023-02-11T00:42:17.967Z,32.25
2023-02-11T00:44:44.457Z,31.77
2023-02-11T00:47:10.968Z,31.80
2023-02-11T00:49:40.324Z,31.50
2023-02-11T00:52:06.998Z,29.17
2023-02-11T00:54:33.535Z,29.38
2023-02-11T00:57:00.231Z,29.75
2023-02-11T00:59:27.097Z,29.65
2023-02-11T01:01:53.659Z,29.58
2023-02-11T01:04:20.244Z,30.48
2023-02-11T01:06:46.795Z,30.05
2023-02-11T01:09:13.354Z,30.77
2023-02-11T01:11:39.923Z,28.58
2023-02-11T01:14:06.408Z,28.95
2023-02-11T01:16:32.909Z,29.95
2023-02-11T01:18:59.495Z,31.98
2023-02-11T01:21:26.136Z,31.05
2023-02-11T01:23:52.777Z,30.90
2023-02-11T01:26:19.315Z,30.42
2023-02-11T01:28:46.062Z,29.27
2023-02-11T01:31:12.642Z,31.27
2023-02-11T01:33:39.254Z,31.52
2023-02-11T01:36:06.827Z,28.70
2023-02-11T01:38:34.207Z,32.65
2023-02-11T01:41:07.464Z,30.83
2023-02-11T01:43:41.623Z,31.23
2023-02-11T01:46:36.038Z,28.58
2023-02-11T01:49:16.569Z,30.23
2023-02-11T01:52:15.834Z,30.20
2023-02-11T01:55:09.369Z,30.00
2023-02-11T01:57:38.785Z,29.83
2023-02-11T02:00:05.245Z,29.45
2023-02-11T02:02:57.907Z,29.50
2023-02-11T02:05:39.491Z,29.52
2023-02-11T02:08:21.611Z,28.40
2023-02-11T02:10:56.288Z,29.23
2023-02-11T02:13:26.955Z,30.40
2023-02-11T02:15:56.450Z,29.20
2023-02-11T02:18:44.372Z,29.08
2023-02-11T02:21:38.229Z,26.58
2023-02-11T02:24:36.871Z,26.90
2023-02-11T02:27:29.491Z,26.38
2023-02-11T02:29:58.564Z,26.65
2023-02-11T02:32:28.062Z,27.02
2023-02-11T02:35:29.515Z,26.15
2023-02-11T02:38:26.247Z,26.00
2023-02-11T02:40:59.149Z,25.55
2023-02-11T02:43:27.691Z,25.30
2023-02-11T02:45:54.921Z,24.98
2023-02-11T02:48:30.045Z,26.50
2023-02-11T02:51:17.697Z,25.73
2023-02-11T02:54:05.743Z,26.38
2023-02-11T02:56:48.692Z,24.00
2023-02-11T02:59:15.129Z,25.17
2023-02-11T03:02:06.466Z,24.23
2023-02-11T03:04:40.403Z,24.10
2023-02-11T03:07:20.034Z,25.63
2023-02-11T03:10:03.613Z,26.45
2023-02-11T03:12:33.942Z,25.38
2023-02-11T03:15:02.612Z,25.20
2023-02-11T03:17:31.668Z,25.70
2023-02-11T03:20:00.054Z,26.23
2023-02-11T03:22:41.113Z,24.80
2023-02-11T03:25:08.086Z,23.67
2023-02-11T03:27:52.294Z,23.42
2023-02-11T03:30:26.304Z,24.23
2023-02-11T03:32:57.513Z,23.52
2023-02-11T03:36:06.799Z,24.50
2023-02-11T03:38:38.800Z,26.17
2023-02-11T03:41:07.940Z,23.83
2023-02-11T03:43:40.878Z,25.77
2023-02-11T03:46:09.546Z,22.85
2023-02-11T03:48:47.391Z,25.33
2023-02-11T03:51:14.935Z,24.77
2023-02-11T03:53:44.764Z,24.00
2023-02-11T03:56:17.135Z,25.48
2023-02-11T03:58:48.462Z,23.75
2023-02-11T04:01:15.503Z,26.10
2023-02-11T04:03:42.368Z,27.02
2023-02-11T04:06:08.899Z,25.52
2023-02-11T04:08:35.513Z,28.38
2023-02-11T04:11:01.991Z,28.08
2023-02-11T04:13:28.490Z,27.95
2023-02-11T04:15:55.096Z,26.40
2023-02-11T04:18:21.718Z,27.35
2023-02-11T04:20:50.238Z,26.98
2023-02-11T04:23:16.826Z,27.95
2023-02-11T04:25:43.584Z,27.02
2023-02-11T04:28:10.212Z,26.27
2023-02-11T04:30:36.727Z,26.88
2023-02-11T04:33:03.282Z,28.50
2023-02-11T04:35:29.765Z,26.33
2023-02-11T04:37:56.306Z,27.67
2023-02-11T04:40:22.834Z,27.15
2023-02-11T04:42:49.302Z,26.33
2023-02-11T04:45:15.854Z,26.55
2023-02-11T04:47:42.377Z,27.17
2023-02-11T04:50:09.132Z,26.95
2023-02-11T04:52:35.617Z,25.63
2023-02-11T04:55:02.132Z,27.25
2023-02-11T04:57:28.625Z,26.30
2023-02-11T04:59:55.123Z,26.95
2023-02-11T05:02:21.630Z,26.98
2023-02-11T05:04:48.190Z,26.70
2023-02-11T05:07:14.710Z,26.50
2023-02-11T05:09:41.281Z,25.65
2023-02-11T05:12:08.833Z,27.05
2023-02-11T05:14:35.339Z,26.60
2023-02-11T05:17:01.906Z,25.27
2023-02-11T05:19:28.421Z,26.00
2023-02-11T05:22:02.627Z,27.65
2023-02-11T05:24:33.483Z,24.95
2023-02-11T05:27:00.531Z,24.83
2023-02-11T05:29:27.247Z,26.92
2023-02-11T05:31:53.994Z,28.25
2023-02-11T05:34:20.497Z,26.95
2023-02-11T05:36:47.092Z,28.33
2023-02-11T05:39:13.570Z,26.33
2023-02-11T05:41:40.119Z,26.13
2023-02-11T05:44:06.671Z,27.55
2023-02-11T05:46:33.268Z,25.45
2023-02-11T05:48:59.854Z,25.65
2023-02-11T05:51:26.384Z,28.58
2023-02-11T05:53:53.330Z,29.52
2023-02-11T05:56:19.895Z,27.95
2023-02-11T05:58:46.411Z,28.33
2023-02-11T06:01:12.942Z,29.67
2023-02-11T06:03:39.546Z,27.80
2023-02-11T06:06:10.585Z,28.00
2023-02-11T06:08:39.168Z,26.65
2023-02-11T06:11:05.923Z,27.13
2023-02-11T06:13:32.430Z,23.30
2023-02-11T06:16:00.949Z,25.13
2023-02-11T06:18:28.028Z,23.30
2023-02-11T06:20:54.508Z,27.27
2023-02-11T06:23:21.627Z,24.38
2023-02-11T06:25:48.423Z,25.98
2023-02-11T06:28:15.277Z,26.70
2023-02-11T06:30:41.791Z,25.67
2023-02-11T06:33:08.285Z,24.92
2023-02-11T06:35:35.378Z,28.15
2023-02-11T06:38:02.160Z,26.63
2023-02-11T06:40:28.688Z,26.73
2023-02-11T06:42:55.344Z,26.63
2023-02-11T06:45:21.909Z,26.77
2023-02-11T06:47:51.080Z,26.80
2023-02-11T06:50:17.656Z,25.77
2023-02-11T06:52:44.184Z,26.30
2023-02-11T06:55:10.727Z,28.70
2023-02-11T06:57:37.241Z,33.08
2023-02-11T07:00:05.604Z,26.77
2023-02-11T07:02:32.431Z,28.70
2023-02-11T07:04:58.980Z,30.63
2023-02-11T07:07:25.449Z,37.17
2023-02-11T07:09:52.024Z,42.15
2023-02-11T07:12:18.493Z,38.75
2023-02-11T07:14:44.999Z,37.90
2023-02-11T07:17:11.524Z,34.95
2023-02-11T07:19:38.001Z,31.67
2023-02-11T07:22:04.479Z,29.00
2023-02-11T07:24:30.972Z,29.13
2023-02-11T07:26:57.422Z,28.98
2023-02-11T07:29:23.890Z,28.83
2023-02-11T07:31:50.424Z,27.80
2023-02-11T07:34:16.955Z,26.55
2023-02-11T07:36:46.099Z,28.95
2023-02-11T07:39:12.883Z,27.10
2023-02-11T07:41:39.416Z,27.73
2023-02-11T07:44:06.187Z,24.17
2023-02-11T07:46:34.575Z,21.05
2023-02-11T07:49:01.445Z,24.02
2023-02-11T07:51:29.865Z,24.58
2023-02-11T07:53:58.762Z,29.00
2023-02-11T07:56:25.815Z,25.50
2023-02-11T07:58:52.331Z,23.67
2023-02-11T08:01:25.907Z,23.00
2023-02-11T08:03:53.093Z,19.75
2023-02-11T08:06:21.150Z,20.38
2023-02-11T08:08:48.435Z,20.90
2023-02-11T08:11:20.353Z,21.08
2023-02-11T08:13:47.006Z,20.40
2023-02-11T08:16:31.600Z,35.20
2023-02-11T08:19:00.714Z,25.73
2023-02-11T08:21:27.590Z,21.85
2023-02-11T08:23:54.451Z,21.30
2023-02-11T08:26:23.747Z,20.27
2023-02-11T08:28:52.226Z,19.90
2023-02-11T08:31:24.805Z,21.05
2023-02-11T08:33:51.593Z,19.83
2023-02-11T08:36:21.771Z,20.27
2023-02-11T08:41:15.294Z,20.38
2023-02-11T08:43:43.478Z,21.05
2023-02-11T08:46:13.455Z,15.73
2023-02-11T08:48:40.052Z,13.52
2023-02-11T08:51:12.749Z,16.15
2023-02-11T08:53:39.543Z,16.15
2023-02-11T08:56:06.631Z,21.30
2023-02-11T08:58:33.362Z,17.55
2023-02-11T09:01:00.239Z,16.33
2023-02-11T09:03:26.941Z,16.80
2023-02-11T09:05:53.441Z,16.25
2023-02-11T09:08:20.977Z,19.58
2023-02-11T09:10:47.609Z,16.70
2023-02-11T09:13:14.112Z,13.30
2023-02-11T09:15:40.613Z,15.13
2023-02-11T09:18:07.529Z,12.82
2023-02-11T09:20:34.223Z,16.20
2023-02-11T09:23:00.889Z,13.65
2023-02-11T09:25:27.541Z,17.83
2023-02-11T09:27:54.115Z,13.52
2023-02-11T09:30:21.101Z,13.35
2023-02-11T09:32:47.952Z,11.68
2023-02-11T09:35:14.468Z,10.13
2023-02-11T09:37:40.982Z,9.55
2023-02-11T09:40:07.801Z,14.15
2023-02-11T09:42:49.945Z,9.80
2023-02-11T09:45:30.789Z,9.45
2023-02-11T09:48:06.842Z,8.93
2023-02-11T09:50:41.734Z,8.73
2023-02-11T09:53:23.533Z,8.45
2023-02-11T09:55:55.762Z,8.88
2023-02-11T09:58:36.848Z,8.52
2023-02-11T10:01:27.551Z,8.15
2023-02-11T10:04:22.206Z,7.70
2023-02-11T10:07:11.951Z,7.70
2023-02-11T10:09:50.725Z,8.80
2023-02-11T10:12:47.596Z,8.02
2023-02-11T10:15:45.119Z,7.10
2023-02-11T10:18:20.630Z,7.90
2023-02-11T10:21:12.249Z,7.88
2023-02-11T10:23:43.185Z,8.93
2023-02-11T11:07:36.688Z,6.88
2023-02-11T11:10:11.359Z,6.07
2023-02-11T11:12:48.267Z,7.00
2023-02-11T11:15:21.647Z,7.30
2023-02-11T11:17:50.208Z,6.93
2023-02-11T11:20:29.735Z,8.02
2023-02-11T11:23:22.764Z,7.90
2023-02-11T11:26:02.918Z,9.13
2023-02-11T11:28:33.467Z,9.68
2023-02-11T11:31:00.590Z,8.85
2023-02-11T11:33:34.479Z,8.27
2023-02-11T11:36:09.880Z,8.23
2023-02-11T11:38:43.676Z,9.00
2023-02-11T11:41:34.053Z,8.10
2023-02-11T11:44:04.225Z,8.25
2023-02-11T11:46:32.606Z,8.48
2023-02-11T11:49:07.323Z,9.05
2023-02-11T11:51:35.078Z,10.40
2023-02-11T11:54:06.540Z,8.38
2023-02-11T11:56:37.729Z,9.50
2023-02-11T11:59:16.666Z,9.15
2023-02-11T12:02:20.502Z,7.82
2023-02-11T12:05:11.780Z,9.73
2023-02-11T12:08:04.762Z,7.85
2023-02-11T12:10:52.368Z,8.80
2023-02-11T12:13:37.557Z,8.52
2023-02-11T12:16:17.827Z,10.65
2023-02-11T12:18:53.046Z,8.15
2023-02-11T12:21:31.568Z,9.68
2023-02-11T12:24:30.011Z,9.80
2023-02-11T12:27:10.121Z,9.13
2023-02-11T12:29:39.447Z,9.15
2023-02-11T12:32:21.719Z,10.00
2023-02-11T12:35:14.055Z,9.52
2023-02-11T12:38:08.413Z,8.60
2023-02-11T12:40:55.254Z,8.95
2023-02-11T12:43:30.671Z,9.48
2023-02-11T12:46:19.134Z,10.02
2023-02-11T12:48:59.701Z,9.07
2023-02-11T12:51:50.452Z,9.95
2023-02-11T12:54:31.493Z,9.75
2023-02-11T12:57:04.064Z,8.52
2023-02-11T12:59:52.060Z,9.00
2023-02-11T13:02:46.097Z,9.48
2023-02-11T13:05:24.431Z,8.68
2023-02-11T13:07:55.862Z,8.13
2023-02-11T13:11:16.141Z,10.18
2023-02-11T13:16:32.491Z,8.52
2023-02-11T13:19:04.917Z,7.47
2023-02-11T13:22:00.445Z,9.23
2023-02-11T13:24:40.929Z,8.15
2023-02-11T13:27:29.348Z,8.05
2023-02-11T13:30:14.787Z,10.10
2023-02-11T13:32:56.323Z,9.77
2023-02-11T13:35:33.489Z,9.65
2023-02-11T13:38:06.377Z,8.50
2023-02-11T13:40:38.399Z,9.70
2023-02-11T13:43:07.466Z,9.40
2023-02-11T13:45:47.922Z,9.63
2023-02-11T13:48:17.080Z,9.63
2023-02-11T13:50:50.454Z,9.27
2023-02-11T13:53:18.887Z,8.95
2023-02-11T13:55:48.543Z,10.23
2023-02-11T13:58:14.981Z,9.07
2023-02-11T14:00:59.422Z,10.02
2023-02-11T14:03:53.367Z,8.43
2023-02-11T14:07:07.623Z,8.75
2023-02-11T14:09:39.360Z,11.30
2023-02-11T14:12:30.635Z,9.60
2023-02-11T14:15:20.966Z,9.60
2023-02-11T14:17:47.722Z,9.07
2023-02-11T14:20:37.916Z,8.45
2023-02-11T14:25:32.111Z,9.18
2023-02-11T14:28:07.984Z,7.93
2023-02-11T14:31:03.720Z,8.70
2023-02-11T14:33:58.529Z,9.43
2023-02-11T14:36:44.668Z,10.00
2023-02-11T14:39:29.396Z,13.65
2023-02-11T14:41:56.560Z,23.40
2023-02-11T14:44:27.283Z,26.25
2023-02-11T14:46:55.153Z,15.75
2023-02-11T14:49:21.788Z,15.93
2023-02-11T14:51:48.365Z,15.63
2023-02-11T14:54:24.806Z,11.60
2023-02-11T14:57:19.988Z,10.98
2023-02-11T15:00:05.059Z,11.57
2023-02-11T15:02:37.609Z,10.80
2023-02-11T15:05:20.913Z,11.40
2023-02-11T15:07:54.807Z,11.05
2023-02-11T15:10:25.554Z,11.20
2023-02-11T15:12:53.532Z,11.20
2023-02-11T15:15:20.348Z,11.15
2023-02-11T15:17:47.456Z,11.52
2023-02-11T15:20:24.567Z,11.68
2023-02-11T15:22:56.902Z,11.23
2023-02-11T15:25:24.046Z,11.18
2023-02-11T15:27:53.915Z,10.23
2023-02-11T15:30:23.370Z,10.32
2023-02-11T15:33:02.728Z,9.38
2023-02-11T15:35:35.030Z,12.17
2023-02-11T15:38:01.515Z,15.10
2023-02-11T15:40:33.040Z,14.05
2023-02-11T15:42:59.612Z,14.63
2023-02-11T15:45:30.995Z,14.55
2023-02-11T15:48:12.641Z,14.68
2023-02-11T15:50:41.357Z,13.20
2023-02-11T15:53:28.017Z,13.07
2023-02-11T15:56:15.728Z,11.35
2023-02-11T15:58:45.568Z,12.55
2023-02-11T16:01:12.850Z,11.23
2023-02-11T16:03:42.025Z,12.10
2023-02-11T16:06:38.751Z,9.93
2023-02-11T16:09:11.081Z,11.50
2023-02-11T16:11:55.328Z,11.43
2023-02-11T16:14:27.560Z,11.98
2023-02-11T16:16:58.685Z,9.77
2023-02-11T16:19:27.156Z,10.32
2023-02-11T16:21:56.183Z,10.98
2023-02-11T16:24:28.058Z,10.13
2023-02-11T16:26:57.496Z,10.60
2023-02-11T16:29:29.455Z,11.77
2023-02-11T16:32:17.682Z,11.18
2023-02-11T16:34:44.873Z,10.70
2023-02-11T16:37:11.434Z,10.00
2023-02-11T16:39:37.968Z,10.63
2023-02-11T16:42:07.590Z,12.07
2023-02-11T16:44:34.617Z,13.57
2023-02-11T16:47:05.992Z,14.82
2023-02-11T16:49:41.654Z,14.52
2023-02-11T16:52:13.311Z,13.30
2023-02-11T16:54:39.803Z,14.90
2023-02-11T16:57:14.617Z,16.92
2023-02-11T16:59:41.188Z,13.45
2023-02-11T17:02:33.001Z,12.45
2023-02-11T17:05:01.908Z,10.85
2023-02-11T17:07:29.034Z,10.68
2023-02-11T17:09:56.014Z,11.00
2023-02-11T17:12:25.354Z,11.80
2023-02-11T17:14:52.506Z,11.38
2023-02-11T17:17:19.595Z,11.65
2023-02-11T17:19:47.819Z,11.95
2023-02-11T17:22:14.332Z,13.30
2023-02-11T17:24:40.867Z,14.57
2023-02-11T17:27:07.347Z,13.40
2023-02-11T17:29:33.892Z,13.82
2023-02-11T17:32:00.562Z,15.10
2023-02-11T17:34:29.178Z,13.75
2023-02-11T17:36:55.964Z,12.52
2023-02-11T17:39:22.486Z,11.27
2023-02-11T17:41:48.997Z,10.38
2023-02-11T17:44:16.361Z,10.43
2023-02-11T17:46:43.018Z,10.40
2023-02-11T17:49:11.552Z,10.95
2023-02-11T17:51:39.575Z,11.23
2023-02-11T17:54:14.610Z,11.50
2023-02-11T17:56:42.166Z,10.45
2023-02-11T17:59:11.615Z,10.68
2023-02-11T18:01:39.843Z,10.93
2023-02-11T18:04:07.914Z,12.18
2023-02-11T18:06:35.076Z,11.57
2023-02-11T18:09:04.249Z,13.98
2023-02-11T18:11:33.282Z,15.03
2023-02-11T18:14:01.195Z,14.23
2023-02-11T18:16:29.419Z,13.63
2023-02-11T18:18:57.477Z,14.43
2023-02-11T18:21:24.441Z,14.93
2023-02-11T18:23:51.362Z,14.02
2023-02-11T18:26:20.076Z,13.48
2023-02-11T18:28:46.632Z,12.77
2023-02-11T18:31:14.053Z,13.98
2023-02-11T18:33:41.828Z,12.82
2023-02-11T18:36:13.772Z,14.35
2023-02-11T18:38:41.328Z,14.43
2023-02-11T18:41:08.421Z,14.13
2023-02-11T18:43:35.198Z,12.65
2023-02-11T18:46:06.297Z,12.65
2023-02-11T18:48:32.927Z,12.40
2023-02-11T18:50:59.510Z,15.73
2023-02-11T18:53:26.090Z,14.52
2023-02-11T18:55:53.705Z,13.43
2023-02-11T18:58:21.312Z,18.42
2023-02-11T19:00:48.484Z,19.17
2023-02-11T19:03:15.027Z,15.93
2023-02-11T19:05:46.829Z,17.05
2023-02-11T19:08:13.790Z,18.52
2023-02-11T19:10:47.944Z,19.33
2023-02-11T19:13:15.026Z,15.50
2023-02-11T19:15:43.454Z,12.77
2023-02-11T19:18:10.904Z,12.18
2023-02-11T19:20:42.458Z,11.45
2023-02-11T19:23:09.641Z,9.95
2023-02-11T19:25:36.441Z,10.55
2023-02-11T19:28:03.499Z,12.35
2023-02-11T19:30:30.639Z,12.13
2023-02-11T19:32:57.713Z,11.05
2023-02-11T19:35:25.454Z,10.23
2023-02-11T19:37:52.019Z,10.40
2023-02-11T19:40:21.167Z,10.30
2023-02-11T19:42:47.725Z,11.48
2023-02-11T19:45:14.211Z,9.88
2023-02-11T19:47:40.784Z,12.00
2023-02-11T19:50:08.634Z,11.02
2023-02-11T19:52:38.160Z,11.40
2023-02-11T19:55:04.947Z,9.32
2023-02-11T19:57:31.469Z,10.40
2023-02-11T19:59:58.054Z,9.77
2023-02-11T20:02:24.812Z,10.07
2023-02-11T20:04:51.435Z,9.20
2023-02-11T20:07:17.984Z,10.98
2023-02-11T20:09:44.638Z,10.90
2023-02-11T20:12:12.098Z,9.50
2023-02-11T20:14:38.855Z,9.45
2023-02-11T20:17:05.492Z,9.38
2023-02-11T20:19:32.257Z,9.55
2023-02-11T20:21:58.758Z,10.10
2023-02-11T20:24:25.960Z,8.73
2023-02-11T20:26:55.730Z,9.52
2023-02-11T20:29:23.624Z,10.85
2023-02-11T20:31:50.954Z,11.10
2023-02-11T20:34:18.057Z,9.65
2023-02-11T20:36:51.473Z,9.80
2023-02-11T20:39:18.699Z,9.15
2023-02-11T20:41:46.231Z,9.80
2023-02-11T20:44:13.226Z,9.70
2023-02-11T20:46:42.930Z,9.90
2023-02-11T20:49:14.131Z,11.00
2023-02-11T20:51:41.295Z,8.65
2023-02-11T20:54:12.366Z,9.55
2023-02-11T20:56:39.674Z,9.55
2023-02-11T20:59:06.738Z,9.77
2023-02-11T21:01:43.191Z,9.90
2023-02-11T21:04:15.364Z,10.07
2023-02-11T21:06:44.645Z,8.77
2023-02-11T21:09:15.278Z,10.30
2023-02-11T21:11:42.994Z,10.43
2023-02-11T21:14:10.297Z,9.02
2023-02-11T21:16:37.180Z,10.85
2023-02-11T21:19:04.028Z,9.80
2023-02-11T21:21:34.966Z,10.30
2023-02-11T21:24:01.469Z,9.70
2023-02-11T21:26:28.027Z,10.52
2023-02-11T21:28:55.165Z,10.65
2023-02-11T21:31:27.032Z,10.65
2023-02-11T21:33:59.352Z,10.25
2023-02-11T21:36:28.085Z,9.25
2023-02-11T21:38:54.668Z,10.13
2023-02-11T21:41:22.539Z,9.65
2023-02-11T21:43:49.942Z,9.18
2023-02-11T21:46:18.257Z,10.27
2023-02-11T21:48:45.201Z,9.07
2023-02-11T21:51:15.998Z,9.30
2023-02-11T21:53:42.540Z,10.90
2023-02-11T21:56:11.910Z,10.02
2023-02-11T21:58:38.552Z,10.30
2023-02-11T22:01:18.886Z,9.90
2023-02-11T22:03:45.982Z,11.32
2023-02-11T22:06:18.505Z,10.00
2023-02-11T22:08:45.028Z,10.55
2023-02-11T22:11:12.874Z,9.98
2023-02-11T22:13:40.891Z,10.85
2023-02-11T22:16:11.154Z,10.45
2023-02-11T22:18:38.520Z,10.93
2023-02-11T22:21:08.985Z,9.85
2023-02-11T22:23:37.154Z,10.20
2023-02-11T22:26:07.063Z,8.65
2023-02-11T22:28:34.649Z,10.43
2023-02-11T22:31:01.319Z,10.73
2023-02-11T22:33:28.636Z,10.50
2023-02-11T22:36:05.661Z,10.32
2023-02-11T22:38:33.277Z,9.55
2023-02-11T22:41:04.761Z,10.88
2023-02-11T22:43:31.273Z,9.35
2023-02-11T22:46:02.318Z,9.13
2023-02-11T22:48:29.219Z,8.45
2023-02-11T22:50:56.005Z,9.38
2023-02-11T22:53:25.429Z,10.13
2023-02-11T22:55:52.158Z,9.80
2023-02-11T22:58:18.873Z,9.43
2023-02-11T23:00:45.471Z,8.55
2023-02-11T23:03:12.854Z,8.85
2023-02-11T23:05:41.340Z,9.13
2023-02-11T23:08:10.172Z,9.48
2023-02-11T23:10:37.572Z,9.98
2023-02-11T23:13:05.957Z,9.25
2023-02-11T23:15:33.151Z,9.55
2023-02-11T23:17:59.704Z,9.70
2023-02-11T23:20:26.231Z,9.20
2023-02-11T23:22:52.751Z,8.98
2023-02-11T23:25:19.287Z,10.13
2023-02-11T23:27:45.769Z,9.48
2023-02-11T23:30:12.747Z,11.00
2023-02-11T23:32:39.583Z,9.70
2023-02-11T23:35:06.482Z,10.65
2023-02-11T23:37:32.977Z,10.60
2023-02-11T23:39:59.475Z,9.40
2023-02-11T23:42:26.039Z,9.85
2023-02-11T23:44:52.516Z,9.05
2023-02-11T23:47:18.996Z,9.52
2023-02-11T23:49:45.494Z,9.77
2023-02-11T23:52:11.987Z,9.40
2023-02-11T23:54:38.522Z,10.50
2023-02-11T23:57:05.099Z,9.73
2023-02-11T23:59:31.587Z,9.80
